Time;durP1;ratioP1;P1;durP2;ratioP2;P2;SDS_P1;SDS_P2;PMS_P1;PMS_P2;Temp;Humidity;BMP_temperature;BMP_pressure;BME280_temperature;BME280_humidity;BME280_pressure;Samples;Min_cycle;Max_cycle;Signal;HPM_P1;HPM_P2
2022/02/12 00:01:42;;;;;;;17.15;10.57;;;11.40;99.90;;;;;;4973423;28;20121;-58
2022/02/12 00:04:10;;;;;;;12.77;9.77;;;11.40;99.90;;;;;;4973163;28;20066;-56
2022/02/12 00:06:37;;;;;;;11.38;8.90;;;11.40;99.90;;;;;;4987687;28;20056;-57
2022/02/12 00:09:05;;;;;;;9.65;7.70;;;11.40;99.90;;;;;;4973754;28;20042;-58
2022/02/12 00:11:32;;;;;;;14.18;9.70;;;11.40;99.90;;;;;;4973951;28;20494;-58
2022/02/12 00:14:00;;;;;;;12.30;8.73;;;11.40;99.90;;;;;;4974531;28;20367;-57
2022/02/12 00:16:27;;;;;;;9.13;6.60;;;11.40;99.90;;;;;;4975104;28;20049;-57
2022/02/12 00:18:56;;;;;;;13.07;7.72;;;11.30;99.90;;;;;;4974277;28;20236;-57
2022/02/12 00:21:24;;;;;;;7.80;5.78;;;11.30;99.90;;;;;;4974062;28;20054;-58
2022/02/12 00:23:51;;;;;;;9.40;6.63;;;11.30;99.90;;;;;;4957704;28;20114;-57
2022/02/12 00:26:22;;;;;;;9.50;6.78;;;11.40;99.90;;;;;;4974236;28;20089;-57
2022/02/12 00:28:49;;;;;;;8.88;6.95;;;11.30;99.90;;;;;;4973869;28;20034;-57
2022/02/12 00:31:19;;;;;;;7.47;5.03;;;11.40;99.90;;;;;;4974172;28;20097;-57
2022/02/12 00:33:46;;;;;;;7.97;5.40;;;11.30;99.90;;;;;;4974663;28;20097;-58
2022/02/12 00:36:14;;;;;;;14.15;5.78;;;11.30;99.90;;;;;;4973812;28;20039;-58
2022/02/12 00:38:41;;;;;;;7.82;6.03;;;11.30;99.90;;;;;;4973573;28;20059;-57
2022/02/12 00:41:09;;;;;;;6.68;4.95;;;11.20;99.90;;;;;;4974823;28;20141;-57
2022/02/12 00:43:37;;;;;;;7.68;4.53;;;11.20;99.90;;;;;;4974822;28;20043;-57
2022/02/12 00:46:05;;;;;;;6.28;4.68;;;11.20;99.90;;;;;;4973674;28;20035;-58
2022/02/12 00:48:33;;;;;;;6.35;4.20;;;11.10;99.90;;;;;;4967595;28;20053;-59
2022/02/12 00:51:01;;;;;;;6.18;4.13;;;11.10;99.90;;;;;;4965375;28;20141;-58
2022/02/12 00:53:29;;;;;;;7.35;5.32;;;11.20;99.90;;;;;;4952367;29;20134;-58
2022/02/12 00:55:57;;;;;;;5.95;3.42;;;11.20;99.90;;;;;;4953503;29;20102;-57
2022/02/12 00:58:24;;;;;;;5.95;3.75;;;11.20;99.90;;;;;;4955597;28;20098;-57
2022/02/12 01:00:52;;;;;;;4.47;3.97;;;11.20;99.90;;;;;;4953784;29;20062;-57
2022/02/12 01:03:19;;;;;;;5.25;3.67;;;11.30;99.90;;;;;;4953964;29;20043;-57
2022/02/12 01:05:48;;;;;;;6.40;3.90;;;11.30;99.90;;;;;;4955427;28;20122;-57
2022/02/12 01:08:16;;;;;;;4.38;3.30;;;11.20;99.90;;;;;;4955280;29;20106;-56
2022/02/12 01:10:43;;;;;;;4.63;3.67;;;11.10;99.90;;;;;;4955604;29;20043;-57
2022/02/12 01:13:12;;;;;;;5.03;3.75;;;11.00;99.90;;;;;;4954283;29;20130;-57
2022/02/12 01:15:40;;;;;;;5.70;3.92;;;10.90;99.90;;;;;;4955365;28;20048;-57
2022/02/12 01:18:08;;;;;;;4.93;3.55;;;10.80;99.90;;;;;;4955233;29;20042;-57
2022/02/12 01:20:36;;;;;;;6.30;4.05;;;10.70;99.90;;;;;;4955307;29;20078;-57
2022/02/12 01:23:04;;;;;;;6.60;3.65;;;10.80;99.90;;;;;;4953820;29;20081;-57
2022/02/12 01:25:32;;;;;;;4.63;3.53;;;10.80;99.90;;;;;;4955307;29;20047;-57
2022/02/12 01:27:59;;;;;;;4.30;3.30;;;10.80;99.90;;;;;;4954131;29;20151;-57
2022/02/12 01:30:27;;;;;;;4.32;3.35;;;10.80;99.90;;;;;;4954439;28;20044;-58
2022/02/12 01:32:54;;;;;;;4.93;3.60;;;10.80;99.90;;;;;;4954861;29;20566;-57
2022/02/12 01:35:24;;;;;;;4.70;3.90;;;10.90;99.90;;;;;;4955620;28;20059;-58
2022/02/12 01:37:53;;;;;;;4.55;3.15;;;10.90;99.90;;;;;;4958855;29;20074;-58
2022/02/12 01:40:24;;;;;;;5.25;3.17;;;10.90;99.90;;;;;;4973983;28;20465;-57
2022/02/12 01:42:53;;;;;;;5.60;3.67;;;10.80;99.90;;;;;;4958938;28;20058;-57
2022/02/12 01:45:22;;;;;;;5.32;3.85;;;10.70;99.90;;;;;;4958668;28;20466;-57
2022/02/12 01:47:50;;;;;;;5.13;4.00;;;10.70;99.90;;;;;;4957428;29;20494;-57
2022/02/12 01:50:19;;;;;;;5.90;4.10;;;10.60;99.90;;;;;;4973807;28;20378;-57
2022/02/12 01:52:47;;;;;;;5.78;3.90;;;10.60;99.90;;;;;;4958461;29;20047;-56
2022/02/12 01:55:15;;;;;;;6.00;3.97;;;10.70;99.90;;;;;;4958477;28;20503;-57
2022/02/12 01:57:43;;;;;;;5.45;3.65;;;10.70;99.90;;;;;;4958375;28;20039;-57
2022/02/12 02:00:14;;;;;;;5.13;3.42;;;10.70;99.90;;;;;;4958384;29;20055;-57
2022/02/12 02:02:42;;;;;;;5.70;3.83;;;10.70;99.90;;;;;;4957136;29;20418;-57
2022/02/12 02:05:14;;;;;;;6.13;4.07;;;10.70;99.90;;;;;;4957069;29;20047;-57
2022/02/12 02:07:43;;;;;;;6.15;4.10;;;10.80;99.90;;;;;;4958239;29;20039;-57
2022/02/12 02:10:12;;;;;;;5.18;4.22;;;10.80;99.90;;;;;;4958221;28;20047;-57
2022/02/12 02:12:40;;;;;;;6.07;4.70;;;10.70;99.90;;;;;;4957961;28;20059;-57
2022/02/12 02:15:08;;;;;;;6.28;3.72;;;10.70;99.90;;;;;;4958054;28;20155;-57
2022/02/12 02:17:36;;;;;;;6.25;4.00;;;10.80;99.90;;;;;;4957992;29;20047;-57
2022/02/12 02:20:06;;;;;;;6.13;3.67;;;10.80;99.90;;;;;;4957057;29;20046;-57
2022/02/12 02:22:47;;;;;;;9.07;3.67;;;10.70;99.90;;;;;;4958301;28;20409;-57
2022/02/12 02:25:15;;;;;;;6.88;3.80;;;10.70;99.90;;;;;;4957951;28;20061;-56
2022/02/12 02:27:42;;;;;;;9.32;4.95;;;10.80;99.90;;;;;;4956724;29;20039;-57
2022/02/12 02:30:19;;;;;;;7.25;4.38;;;10.80;99.90;;;;;;4956733;28;20059;-57
2022/02/12 02:32:47;;;;;;;5.00;3.38;;;10.80;99.90;;;;;;4956924;29;20135;-57
2022/02/12 02:35:19;;;;;;;6.57;4.10;;;10.90;99.90;;;;;;4940898;29;20558;-57
2022/02/12 02:37:47;;;;;;;5.63;3.75;;;10.90;99.90;;;;;;4956610;29;20054;-57
2022/02/12 02:40:24;;;;;;;6.55;3.53;;;10.90;99.90;;;;;;4956506;29;20115;-57
2022/02/12 02:42:52;;;;;;;5.45;3.17;;;10.90;99.90;;;;;;4958229;28;20114;-57
2022/02/12 02:45:20;;;;;;;4.95;2.97;;;11.00;99.90;;;;;;4957497;28;20039;-57
2022/02/12 02:47:48;;;;;;;5.00;3.17;;;11.00;99.90;;;;;;4957643;29;20051;-57
2022/02/12 02:56:02;;;;;;;7.22;3.88;;;11.00;99.90;;;;;;4957506;28;20047;-57
2022/02/12 02:58:49;;;;;;;6.18;3.63;;;11.00;99.90;;;;;;4957425;28;20070;-57
2022/02/12 03:01:19;;;;;;;7.00;3.92;;;11.00;99.90;;;;;;4956200;29;20055;-55
2022/02/12 03:03:49;;;;;;;6.15;4.00;;;11.10;99.90;;;;;;4956049;29;20086;-57
2022/02/12 03:06:18;;;;;;;5.07;3.40;;;11.10;99.90;;;;;;4957430;28;20043;-56
2022/02/12 03:08:46;;;;;;;6.40;3.70;;;11.10;99.90;;;;;;4957239;29;20521;-57
2022/02/12 03:11:15;;;;;;;4.97;2.97;;;11.10;99.90;;;;;;4957024;28;20450;-57
2022/02/12 03:13:44;;;;;;;5.38;3.28;;;11.20;99.90;;;;;;4956885;28;20487;-57
2022/02/12 03:16:12;;;;;;;5.70;3.33;;;11.20;99.90;;;;;;4955797;28;20075;-57
2022/02/12 03:18:46;;;;;;;6.82;3.40;;;11.20;99.90;;;;;;4956988;28;20158;-56
2022/02/12 03:21:14;;;;;;;4.90;3.20;;;11.20;99.90;;;;;;4955832;29;20074;-57
2022/02/12 03:23:42;;;;;;;4.55;3.30;;;11.20;99.90;;;;;;4939963;29;20428;-57
2022/02/12 03:26:11;;;;;;;4.45;2.95;;;11.30;99.90;;;;;;4956750;28;20047;-57
2022/02/12 03:28:39;;;;;;;4.32;3.28;;;11.30;99.90;;;;;;4955686;29;20167;-57
2022/02/12 03:31:07;;;;;;;5.85;3.88;;;11.30;99.90;;;;;;4956902;28;20047;-57
2022/02/12 03:33:35;;;;;;;7.07;4.68;;;11.30;99.90;;;;;;4955604;29;20410;-57
2022/02/12 03:36:04;;;;;;;7.82;5.10;;;11.30;99.90;;;;;;4955675;29;20553;-57
2022/02/12 03:38:35;;;;;;;9.10;6.25;;;11.30;99.90;;;;;;4956509;29;20098;-57
2022/02/12 03:41:05;;;;;;;10.60;5.75;;;11.30;99.90;;;;;;4956558;29;20483;-57
2022/02/12 03:43:37;;;;;;;8.50;5.40;;;11.30;99.90;;;;;;4956728;28;20083;-57
2022/02/12 03:46:05;;;;;;;5.90;4.43;;;11.30;99.90;;;;;;4955571;29;20047;-57
2022/02/12 03:48:33;;;;;;;6.10;3.65;;;11.30;99.90;;;;;;4956645;28;20134;-57
2022/02/12 03:51:01;;;;;;;8.57;4.30;;;11.30;99.90;;;;;;4956270;28;20035;-57
2022/02/12 03:53:28;;;;;;;6.40;4.45;;;11.30;99.90;;;;;;4956109;29;20051;-57
2022/02/12 03:55:55;;;;;;;7.00;3.53;;;11.20;99.90;;;;;;4971084;28;20070;-57
2022/02/12 03:58:23;;;;;;;5.25;3.40;;;11.20;99.90;;;;;;4954492;28;20051;-57
2022/02/12 04:00:51;;;;;;;12.95;3.97;;;11.20;99.90;;;;;;4956243;28;20058;-57
2022/02/12 04:03:19;;;;;;;5.80;4.07;;;11.20;99.90;;;;;;4955058;29;20047;-57
2022/02/12 04:05:47;;;;;;;6.35;4.43;;;11.20;99.90;;;;;;4954918;29;20089;-58
2022/02/12 04:08:18;;;;;;;5.47;3.72;;;11.20;99.90;;;;;;4955880;28;20043;-57
2022/02/12 04:10:48;;;;;;;16.20;4.22;;;11.20;99.90;;;;;;4955023;29;20576;-57
2022/02/12 04:13:18;;;;;;;6.03;3.22;;;11.20;99.90;;;;;;4955877;28;20138;-56
2022/02/12 04:15:46;;;;;;;7.10;3.90;;;11.20;99.90;;;;;;4955949;28;20410;-57
2022/02/12 04:18:15;;;;;;;4.05;3.13;;;11.20;99.90;;;;;;4955759;28;20051;-56
2022/02/12 04:20:43;;;;;;;5.40;3.65;;;11.20;99.90;;;;;;4955102;29;20380;-58
2022/02/12 04:23:12;;;;;;;5.88;3.15;;;11.20;99.90;;;;;;4954622;29;20047;-57
2022/02/12 04:25:40;;;;;;;8.95;4.55;;;11.20;99.90;;;;;;4955800;28;20131;-57
2022/02/12 04:28:09;;;;;;;5.55;3.50;;;11.20;99.90;;;;;;4954768;29;20050;-57
2022/02/12 04:30:39;;;;;;;6.22;3.95;;;11.20;99.90;;;;;;4954660;29;20047;-57
2022/02/12 04:33:08;;;;;;;6.05;3.88;;;11.20;99.90;;;;;;4955725;28;20074;-57
2022/02/12 04:35:36;;;;;;;5.43;3.60;;;11.20;99.90;;;;;;4955671;29;20043;-57
2022/02/12 04:38:04;;;;;;;7.22;3.85;;;11.20;99.90;;;;;;4954436;29;20138;-57
2022/02/12 04:40:32;;;;;;;6.32;4.10;;;11.20;99.90;;;;;;4955572;28;20075;-57
2022/02/12 04:42:59;;;;;;;6.53;3.42;;;11.20;99.90;;;;;;4955819;28;20452;-57
2022/02/12 04:45:27;;;;;;;5.13;3.33;;;11.20;99.90;;;;;;4955506;28;20078;-58
2022/02/12 04:47:56;;;;;;;7.35;3.15;;;11.10;99.90;;;;;;4955449;28;20122;-57
2022/02/12 04:50:24;;;;;;;6.22;2.85;;;11.10;99.90;;;;;;4955371;29;20083;-57
2022/02/12 04:52:52;;;;;;;7.85;3.63;;;11.10;99.90;;;;;;4955419;28;20054;-57
2022/02/12 04:55:20;;;;;;;5.50;3.83;;;11.10;99.90;;;;;;4955443;29;20521;-57
2022/02/12 04:57:48;;;;;;;14.65;4.82;;;11.00;99.90;;;;;;4954287;28;20073;-57
2022/02/12 05:00:16;;;;;;;6.45;4.07;;;11.00;99.90;;;;;;4955184;29;20561;-57
2022/02/12 05:02:46;;;;;;;6.55;3.90;;;11.00;99.90;;;;;;4954310;28;20054;-57
2022/02/12 05:05:13;;;;;;;10.10;4.55;;;10.90;99.90;;;;;;4955568;28;20047;-57
2022/02/12 05:07:42;;;;;;;6.68;3.40;;;10.90;99.90;;;;;;4955544;29;20462;-57
2022/02/12 05:10:10;;;;;;;8.00;4.35;;;10.80;99.90;;;;;;4956629;28;20094;-57
2022/02/12 05:12:39;;;;;;;6.18;4.90;;;10.80;99.90;;;;;;4959009;28;20439;-57
2022/02/12 05:15:07;;;;;;;7.35;4.93;;;10.80;99.90;;;;;;4942243;29;20079;-57
2022/02/12 05:17:34;;;;;;;5.93;3.75;;;10.80;99.90;;;;;;4959510;29;20067;-57
2022/02/12 05:20:02;;;;;;;7.20;3.50;;;10.80;99.90;;;;;;4958074;28;20126;-57
2022/02/12 05:22:30;;;;;;;5.40;3.70;;;10.80;99.90;;;;;;4957875;29;20042;-57
2022/02/12 05:24:57;;;;;;;8.18;4.32;;;10.80;99.90;;;;;;4959074;29;20050;-57
2022/02/12 05:27:25;;;;;;;5.22;3.63;;;10.80;99.90;;;;;;4958870;28;20126;-57
2022/02/12 05:29:52;;;;;;;7.15;3.75;;;10.80;99.90;;;;;;4958936;28;20053;-57
2022/02/12 05:32:20;;;;;;;7.60;4.05;;;10.80;99.90;;;;;;4958795;29;20138;-57
2022/02/12 05:34:47;;;;;;;4.72;3.55;;;10.90;99.90;;;;;;4958300;28;20505;-57
2022/02/12 05:37:15;;;;;;;5.78;3.67;;;10.80;99.90;;;;;;4958892;28;20435;-57
2022/02/12 05:39:44;;;;;;;6.72;4.18;;;10.80;99.90;;;;;;4957619;29;20039;-56
2022/02/12 05:42:12;;;;;;;4.93;4.00;;;10.80;99.90;;;;;;4958633;29;20043;-57
2022/02/12 05:44:39;;;;;;;7.68;4.82;;;10.70;99.90;;;;;;4957691;29;20113;-57
2022/02/12 05:47:07;;;;;;;5.80;4.30;;;10.70;99.90;;;;;;4958789;29;20134;-57
2022/02/12 05:49:34;;;;;;;8.05;3.20;;;10.60;99.90;;;;;;4958744;28;20514;-57
2022/02/12 05:52:02;;;;;;;5.10;3.28;;;10.60;99.90;;;;;;4973918;28;20442;-57
2022/02/12 05:54:30;;;;;;;4.35;2.85;;;10.60;99.90;;;;;;4958580;29;20043;-57
2022/02/12 05:56:57;;;;;;;7.38;3.10;;;10.60;99.90;;;;;;4958416;29;20050;-57
2022/02/12 05:59:25;;;;;;;4.35;3.35;;;10.60;99.90;;;;;;4957484;29;20566;-56
2022/02/12 06:01:52;;;;;;;5.82;3.17;;;10.60;99.90;;;;;;4973311;28;20138;-57
2022/02/12 06:04:20;;;;;;;5.28;3.63;;;10.70;99.90;;;;;;4958408;29;20039;-57
2022/02/12 06:06:47;;;;;;;5.20;4.03;;;10.70;99.90;;;;;;4958278;29;20043;-57
2022/02/12 06:09:15;;;;;;;8.70;4.25;;;10.70;99.90;;;;;;4958341;28;20474;-57
2022/02/12 06:11:42;;;;;;;7.68;5.38;;;10.80;99.90;;;;;;4958522;29;20043;-57
2022/02/12 06:14:09;;;;;;;8.80;6.40;;;10.80;99.90;;;;;;4958046;29;20122;-57
2022/02/12 06:16:39;;;;;;;11.52;6.05;;;10.90;99.90;;;;;;4957771;28;20047;-57
2022/02/12 06:19:06;;;;;;;7.60;6.32;;;11.00;99.90;;;;;;4957091;29;20047;-57
2022/02/12 06:21:34;;;;;;;11.80;10.63;;;11.20;99.90;;;;;;4956213;28;20043;-57
2022/02/12 06:24:01;;;;;;;14.35;11.18;;;11.30;99.90;;;;;;4957793;28;20054;-57
2022/02/12 06:26:29;;;;;;;10.52;9.52;;;11.60;99.90;;;;;;4956875;29;20074;-57
2022/02/12 06:28:56;;;;;;;7.60;6.45;;;11.80;99.90;;;;;;4972796;28;20097;-57
2022/02/12 06:31:24;;;;;;;7.75;5.35;;;12.20;99.90;;;;;;4972892;28;20118;-58
2022/02/12 06:33:52;;;;;;;7.30;5.38;;;12.60;99.90;;;;;;4956815;29;20043;-57
2022/02/12 06:36:20;;;;;;;8.02;5.60;;;12.80;99.90;;;;;;4957441;29;20047;-57
2022/02/12 06:38:47;;;;;;;6.38;5.25;;;13.00;99.90;;;;;;4956747;29;20057;-56
2022/02/12 06:41:15;;;;;;;10.13;4.53;;;13.10;99.90;;;;;;4956519;28;20043;-58
2022/02/12 06:43:42;;;;;;;7.63;3.70;;;13.20;99.90;;;;;;4956357;29;20122;-56
2022/02/12 06:46:10;;;;;;;9.18;6.63;;;13.40;99.90;;;;;;4957757;28;20039;-57
2022/02/12 06:48:37;;;;;;;7.72;5.15;;;13.60;99.90;;;;;;4956340;29;20039;-57
2022/02/12 06:51:05;;;;;;;8.55;5.47;;;13.90;99.90;;;;;;4956138;29;20078;-57
2022/02/12 06:53:35;;;;;;;5.20;4.10;;;14.30;99.90;;;;;;4955989;29;20122;-58
2022/02/12 06:56:04;;;;;;;6.63;4.47;;;14.70;99.90;;;;;;4972689;28;20098;-57
2022/02/12 06:58:31;;;;;;;7.40;4.70;;;15.00;99.90;;;;;;4957323;28;20086;-58
2022/02/12 07:00:59;;;;;;;6.22;4.47;;;15.00;99.90;;;;;;4957428;29;20084;-57
2022/02/12 07:03:26;;;;;;;5.95;4.25;;;14.90;99.90;;;;;;4957270;28;20047;-57
2022/02/12 07:05:54;;;;;;;6.28;4.55;;;14.80;99.90;;;;;;4956930;28;20043;-57
2022/02/12 07:08:22;;;;;;;7.40;5.03;;;14.80;99.90;;;;;;4957272;28;20048;-58
2022/02/12 07:10:50;;;;;;;7.13;5.28;;;14.90;99.90;;;;;;4957222;29;20098;-58
2022/02/12 07:13:17;;;;;;;6.55;5.05;;;14.90;99.90;;;;;;4971839;28;20051;-57
2022/02/12 07:15:45;;;;;;;6.85;4.82;;;14.70;99.90;;;;;;4924661;29;20387;-58
2022/02/12 07:18:14;;;;;;;6.18;4.53;;;14.50;99.90;;;;;;4955348;29;20090;-58
2022/02/12 07:20:41;;;;;;;6.95;4.95;;;14.20;99.90;;;;;;4955771;29;20055;-57
2022/02/12 07:23:09;;;;;;;10.77;7.07;;;14.10;99.90;;;;;;4956954;29;20047;-56
2022/02/12 07:25:37;;;;;;;9.50;8.48;;;13.90;99.90;;;;;;4955713;28;20435;-58
2022/02/12 07:28:04;;;;;;;9.30;8.13;;;13.90;99.90;;;;;;4955546;29;20057;-57
2022/02/12 07:30:32;;;;;;;11.88;7.47;;;13.90;99.90;;;;;;4955828;29;20102;-58
2022/02/12 07:33:00;;;;;;;10.00;5.78;;;14.00;99.90;;;;;;4956419;28;20118;-59
2022/02/12 07:35:28;;;;;;;5.65;3.95;;;14.10;99.90;;;;;;4961101;28;20043;-59
2022/02/12 07:37:56;;;;;;;6.80;4.72;;;14.20;99.90;;;;;;4966280;28;20553;-58
2022/02/12 07:40:24;;;;;;;9.18;4.45;;;14.30;99.90;;;;;;4966289;28;20086;-59
2022/02/12 07:42:51;;;;;;;12.73;7.32;;;14.40;99.90;;;;;;4949923;28;20043;-59
2022/02/12 07:45:19;;;;;;;10.95;6.93;;;14.60;99.90;;;;;;4964967;28;20537;-57
2022/02/12 07:47:49;;;;;;;10.98;6.80;;;14.60;99.90;;;;;;4963934;28;20050;-57
2022/02/12 07:50:17;;;;;;;9.35;7.25;;;14.70;99.90;;;;;;4975534;28;20454;-58
2022/02/12 07:52:46;;;;;;;13.60;9.70;;;14.70;99.90;;;;;;4956332;28;20051;-58
2022/02/12 07:55:18;;;;;;;15.75;10.30;;;14.80;99.90;;;;;;4963553;28;20047;-58
2022/02/12 07:57:46;;;;;;;13.23;10.20;;;14.80;99.90;;;;;;4970654;28;20047;-56
2022/02/12 08:00:17;;;;;;;11.80;9.63;;;14.90;99.90;;;;;;4974651;28;20047;-58
2022/02/12 08:02:47;;;;;;;11.63;9.15;;;14.90;99.90;;;;;;4974429;28;20438;-58
2022/02/12 08:05:15;;;;;;;12.00;8.63;;;14.90;99.90;;;;;;4956087;29;20062;-58
2022/02/12 08:07:43;;;;;;;13.73;7.80;;;15.00;99.90;;;;;;4955065;29;20508;-58
2022/02/12 08:13:00;;;;;;;10.38;5.80;;;15.30;99.90;;;;;;4954693;29;20415;-58
2022/02/12 08:15:28;;;;;;;5.15;4.13;;;15.40;99.90;;;;;;4955951;28;20067;-57
2022/02/12 08:17:57;;;;;;;7.30;3.83;;;15.40;99.90;;;;;;4955824;28;20051;-58
2022/02/12 08:20:25;;;;;;;5.82;4.70;;;15.50;99.90;;;;;;4955857;28;20047;-58
2022/02/12 08:22:52;;;;;;;4.90;3.58;;;15.60;99.90;;;;;;4959034;28;20039;-58
2022/02/12 08:25:20;;;;;;;5.55;3.88;;;15.60;99.90;;;;;;4986036;28;20493;-58
2022/02/12 08:27:48;;;;;;;7.18;3.25;;;15.70;99.90;;;;;;4971344;28;20077;-58
2022/02/12 08:30:16;;;;;;;4.82;2.90;;;15.70;99.90;;;;;;4975258;28;20134;-58
2022/02/12 08:32:44;;;;;;;5.90;2.50;;;15.80;99.90;;;;;;4967817;28;20035;-58
2022/02/12 08:35:13;;;;;;;4.00;2.28;;;16.00;99.90;;;;;;4962937;28;20047;-58
2022/02/12 08:37:43;;;;;;;5.85;2.70;;;16.10;99.90;;;;;;4968637;28;20102;-58
2022/02/12 08:40:20;;;;;;;5.50;2.17;;;16.20;99.90;;;;;;4960629;28;20059;-58
2022/02/12 08:42:48;;;;;;;9.75;2.13;;;16.30;99.90;;;;;;4955896;28;20048;-58
2022/02/12 08:45:17;;;;;;;3.25;2.05;;;16.30;99.90;;;;;;4956823;28;20086;-57
2022/02/12 08:47:45;;;;;;;3.92;2.40;;;16.30;99.90;;;;;;4964260;28;20043;-58
2022/02/12 08:50:14;;;;;;;3.72;2.25;;;16.40;99.90;;;;;;4941822;28;20491;-57
2022/02/12 08:52:43;;;;;;;4.10;2.30;;;16.30;99.90;;;;;;4983224;28;20057;-56
2022/02/12 08:55:13;;;;;;;2.55;1.90;;;16.30;99.90;;;;;;4956791;28;20050;-57
2022/02/12 08:57:41;;;;;;;3.45;2.30;;;16.30;99.90;;;;;;4955458;28;20474;-57
2022/02/12 09:00:12;;;;;;;4.05;2.42;;;16.40;99.90;;;;;;4938423;29;20039;-57
2022/02/12 09:02:48;;;;;;;7.72;3.22;;;16.40;99.90;;;;;;4955416;28;20076;-57
2022/02/12 09:05:15;;;;;;;5.03;3.38;;;16.50;99.90;;;;;;4955391;28;20043;-57
2022/02/12 09:07:43;;;;;;;5.32;2.80;;;16.50;99.90;;;;;;4955488;28;20043;-57
2022/02/12 09:10:10;;;;;;;6.60;2.95;;;16.50;99.90;;;;;;4955524;28;20067;-57
2022/02/12 09:12:38;;;;;;;4.25;3.30;;;16.60;99.90;;;;;;4959274;28;20050;-57
2022/02/12 09:15:07;;;;;;;6.95;3.20;;;16.70;99.60;;;;;;4965122;28;20130;-58
2022/02/12 09:17:35;;;;;;;4.50;3.00;;;16.70;99.80;;;;;;4965522;28;20071;-58
2022/02/12 09:20:03;;;;;;;7.03;3.22;;;16.90;99.90;;;;;;4971674;28;20035;-58
2022/02/12 09:22:31;;;;;;;6.38;3.25;;;17.00;99.90;;;;;;4974026;28;20125;-58
2022/02/12 09:24:59;;;;;;;6.15;3.30;;;17.20;99.70;;;;;;4972221;28;20054;-58
2022/02/12 09:27:27;;;;;;;5.53;2.70;;;17.30;99.30;;;;;;4973010;28;20039;-58
2022/02/12 09:29:58;;;;;;;5.97;3.00;;;17.40;99.20;;;;;;4970129;28;20137;-57
2022/02/12 09:32:26;;;;;;;5.78;2.90;;;17.60;98.90;;;;;;4967190;28;20039;-58
2022/02/12 09:34:54;;;;;;;3.47;2.70;;;17.70;98.60;;;;;;4962375;28;20450;-57
2022/02/12 09:37:21;;;;;;;3.70;2.55;;;17.70;98.20;;;;;;4969995;28;20047;-57
2022/02/12 09:39:49;;;;;;;4.38;2.60;;;17.70;98.10;;;;;;4962988;28;20051;-57
2022/02/12 09:42:17;;;;;;;5.55;2.53;;;17.80;98.10;;;;;;4952103;29;20134;-57
2022/02/12 09:44:44;;;;;;;4.50;2.42;;;17.70;97.80;;;;;;4954983;28;20083;-57
2022/02/12 09:47:30;;;;;;;3.83;2.20;;;17.50;98.00;;;;;;4955249;28;20055;-58
2022/02/12 09:49:58;;;;;;;4.63;2.42;;;17.50;97.80;;;;;;4980512;28;20043;-57
2022/02/12 09:52:29;;;;;;;3.30;2.40;;;17.40;98.10;;;;;;4963621;28;20043;-58
2022/02/12 09:54:57;;;;;;;4.63;2.55;;;17.40;98.20;;;;;;4956367;28;20528;-58
2022/02/12 09:57:25;;;;;;;5.43;2.28;;;17.20;98.10;;;;;;4958685;28;20043;-58
2022/02/12 10:00:01;;;;;;;4.70;2.78;;;17.20;97.90;;;;;;4960505;28;20040;-58
2022/02/12 10:02:32;;;;;;;4.18;2.30;;;17.30;98.10;;;;;;4978148;28;20085;-58
2022/02/12 10:05:19;;;;;;;3.22;2.03;;;17.30;97.90;;;;;;4976641;28;20046;-58
2022/02/12 10:07:49;;;;;;;3.58;2.10;;;17.30;97.70;;;;;;4960496;28;20053;-57
2022/02/12 10:10:19;;;;;;;8.00;2.50;;;17.30;97.50;;;;;;4976423;28;20046;-58
2022/02/12 10:12:48;;;;;;;3.42;2.28;;;17.40;97.50;;;;;;4977774;28;20078;-58
2022/02/12 10:15:32;;;;;;;4.40;2.00;;;17.50;97.00;;;;;;4977692;28;20039;-58
2022/02/12 10:18:01;;;;;;;2.58;1.73;;;17.50;96.70;;;;;;4964994;28;20441;-58
2022/02/12 10:20:34;;;;;;;3.47;1.85;;;17.40;96.50;;;;;;4968758;28;20043;-57
2022/02/12 10:23:04;;;;;;;4.90;2.95;;;17.30;96.60;;;;;;4966826;28;20045;-58
2022/02/12 10:25:32;;;;;;;6.35;2.58;;;17.40;96.10;;;;;;4973346;28;20550;-57
2022/02/12 10:28:02;;;;;;;6.20;2.20;;;17.30;96.00;;;;;;4973637;28;20505;-58
2022/02/12 10:30:30;;;;;;;4.65;2.35;;;17.40;96.20;;;;;;4977415;28;20042;-57
2022/02/12 10:33:07;;;;;;;3.13;1.80;;;17.70;96.10;;;;;;4968379;28;20490;-58
2022/02/12 10:35:37;;;;;;;4.55;1.92;;;17.90;95.60;;;;;;4957531;28;20054;-57
2022/02/12 10:38:12;;;;;;;3.63;1.77;;;18.00;95.40;;;;;;4958052;28;20098;-56
2022/02/12 10:40:40;;;;;;;3.55;1.90;;;18.20;95.40;;;;;;4973070;28;20047;-58
2022/02/12 10:43:09;;;;;;;6.57;2.17;;;18.40;95.00;;;;;;4959710;28;20054;-57
2022/02/12 10:45:36;;;;;;;6.07;3.15;;;18.20;95.20;;;;;;4966787;28;20043;-57
2022/02/12 10:48:06;;;;;;;4.45;1.80;;;18.00;95.50;;;;;;4972624;28;20052;-57
2022/02/12 10:50:33;;;;;;;2.70;1.70;;;17.80;96.10;;;;;;4957465;28;20102;-58
2022/02/12 10:53:07;;;;;;;5.88;2.00;;;17.50;96.50;;;;;;4967259;28;20130;-57
2022/02/12 10:55:38;;;;;;;10.77;3.30;;;17.50;96.70;;;;;;4976805;28;20038;-57
2022/02/12 10:58:13;;;;;;;2.70;1.85;;;17.50;96.80;;;;;;4976725;28;20055;-57
2022/02/12 11:00:42;;;;;;;7.20;2.17;;;17.50;96.70;;;;;;4969884;28;20054;-57
2022/02/12 11:03:16;;;;;;;4.25;2.55;;;17.60;96.60;;;;;;4972068;28;20130;-57
2022/02/12 11:05:51;;;;;;;2.95;1.83;;;17.70;96.10;;;;;;4957530;28;20047;-58
2022/02/12 11:08:21;;;;;;;5.67;2.10;;;17.70;95.50;;;;;;4957448;28;20187;-57
2022/02/12 11:10:49;;;;;;;4.10;2.47;;;17.70;95.30;;;;;;4957340;29;20641;-58
2022/02/12 11:13:20;;;;;;;4.15;2.60;;;17.70;95.10;;;;;;4972372;28;20043;-57
2022/02/12 11:15:51;;;;;;;4.43;2.95;;;17.60;95.20;;;;;;4952381;28;20086;-57
2022/02/12 11:18:21;;;;;;;3.20;1.83;;;17.50;95.50;;;;;;4960181;28;20035;-58
2022/02/12 11:20:52;;;;;;;5.90;1.50;;;17.40;95.30;;;;;;4964888;28;20040;-57
2022/02/12 11:23:24;;;;;;;3.10;1.73;;;17.20;95.40;;;;;;4972403;28;20516;-57
2022/02/12 11:25:54;;;;;;;3.28;2.28;;;17.10;95.40;;;;;;4983854;28;20043;-58
2022/02/12 11:28:36;;;;;;;3.38;1.83;;;17.00;95.80;;;;;;4955770;28;20078;-57
2022/02/12 11:31:24;;;;;;;5.90;2.75;;;16.80;96.30;;;;;;4956987;28;20051;-57
2022/02/12 11:34:12;;;;;;;3.65;2.40;;;16.70;97.20;;;;;;4960192;28;20047;-57
2022/02/12 11:36:46;;;;;;;5.53;3.17;;;16.60;97.50;;;;;;4974408;28;20142;-57
2022/02/12 11:39:26;;;;;;;7.30;3.63;;;16.60;98.00;;;;;;4968039;28;20039;-57
2022/02/12 11:42:03;;;;;;;6.80;2.92;;;16.80;97.70;;;;;;4972358;28;20045;-57
2022/02/12 11:44:44;;;;;;;3.35;2.40;;;16.70;97.10;;;;;;4983450;28;20055;-58
2022/02/12 11:47:14;;;;;;;4.78;2.72;;;16.70;96.80;;;;;;4973724;28;20054;-57
2022/02/12 11:49:44;;;;;;;3.47;2.25;;;16.70;96.80;;;;;;4966953;28;20048;-58
2022/02/12 11:52:17;;;;;;;3.08;2.08;;;16.70;96.70;;;;;;4969799;28;20512;-57
2022/02/12 11:54:48;;;;;;;3.20;2.03;;;16.70;96.60;;;;;;4973000;28;20039;-58
2022/02/12 11:57:25;;;;;;;5.55;2.75;;;16.70;96.70;;;;;;4955464;28;20054;-58
2022/02/12 12:00:19;;;;;;;8.27;3.90;;;16.80;96.70;;;;;;4972647;28;20489;-57
2022/02/12 12:02:51;;;;;;;4.10;2.85;;;16.90;96.50;;;;;;4971140;28;20082;-58
2022/02/12 12:05:23;;;;;;;5.53;3.72;;;16.80;96.40;;;;;;4973910;28;20090;-57
2022/02/12 12:08:06;;;;;;;3.58;2.58;;;16.70;96.20;;;;;;4974544;28;20133;-58
2022/02/12 12:10:39;;;;;;;3.20;1.83;;;16.70;96.20;;;;;;4973157;28;20114;-58
2022/02/12 12:13:16;;;;;;;4.53;2.63;;;16.60;96.60;;;;;;4973621;28;20034;-58
2022/02/12 12:16:13;;;;;;;5.00;2.17;;;16.50;96.40;;;;;;4973128;28;20386;-58
2022/02/12 12:18:45;;;;;;;4.97;2.10;;;16.60;96.40;;;;;;4972482;28;20069;-57
2022/02/12 12:21:14;;;;;;;5.25;2.13;;;16.50;96.00;;;;;;4974298;28;20070;-58
2022/02/12 12:23:53;;;;;;;5.75;2.17;;;16.50;95.90;;;;;;4971928;28;20464;-58
2022/02/12 12:26:20;;;;;;;3.90;2.05;;;16.50;96.00;;;;;;4973083;28;20386;-58
2022/02/12 12:30:44;;;;;;;6.03;2.83;;;16.50;96.10;;;;;;4972694;28;20074;-57
2022/02/12 12:31:35;;;;;;;4.43;2.70;;;16.40;96.60;;;;;;4973902;28;20046;-57
2022/02/12 12:34:07;;;;;;;4.80;2.28;;;16.30;97.20;;;;;;4973146;28;20556;-58
2022/02/12 12:36:38;;;;;;;4.57;3.38;;;16.30;97.50;;;;;;4972611;28;20486;-58
2022/02/12 12:39:12;;;;;;;5.03;3.55;;;16.20;97.50;;;;;;4972277;28;20067;-58
2022/02/12 12:41:43;;;;;;;6.22;3.90;;;16.10;97.60;;;;;;4972373;28;20410;-58
2022/02/12 12:44:16;;;;;;;9.07;6.35;;;16.10;97.70;;;;;;4973465;28;20519;-57
2022/02/12 12:46:46;;;;;;;12.40;6.93;;;16.10;97.40;;;;;;4963450;28;20569;-57
2022/02/12 12:49:41;;;;;;;7.80;4.85;;;16.10;97.40;;;;;;4950053;28;20051;-57
2022/02/12 12:52:11;;;;;;;7.35;3.90;;;16.10;97.30;;;;;;4962252;28;20070;-57
2022/02/12 12:54:44;;;;;;;9.00;4.72;;;16.20;97.30;;;;;;4963252;28;20046;-57
2022/02/12 12:57:13;;;;;;;7.18;3.58;;;16.20;97.80;;;;;;4955423;28;20051;-57
2022/02/12 12:59:52;;;;;;;3.17;2.15;;;16.20;97.60;;;;;;4962711;28;20446;-57
2022/02/12 13:02:21;;;;;;;6.15;2.58;;;16.10;97.10;;;;;;4974673;28;20066;-57
2022/02/12 13:04:53;;;;;;;4.63;2.60;;;16.10;96.90;;;;;;4974625;28;20383;-57
2022/02/12 13:07:23;;;;;;;21.17;4.25;;;16.10;96.90;;;;;;4974780;28;20035;-57